sensor_id;sensor_type;location;lat;lon;timestamp;P1;P2;P0
69123;PMS5003;56232;53.384;-2.732;2023-06-14T00:00:12;19;18;
69123;PMS5003;56232;53.384;-2.732;2023-06-14T00:02:38;19;19;
69123;PMS5003;56232;53.384;-2.732;2023-06-14T00:05:03;16;16;
69123;PMS5003;56232;53.384;-2.732;2023-06-14T00:09:54;18;17;
69123;PMS5003;56232;53.384;-2.732;2023-06-14T00:12:19;20;20;
69123;PMS5003;56232;53.384;-2.732;2023-06-14T00:14:45;19;18;
69123;PMS5003;56232;53.384;-2.732;2023-06-14T00:17:11;16;16;
69123;PMS5003;56232;53.384;-2.732;2023-06-14T00:19:36;19;18;
69123;PMS5003;56232;53.384;-2.732;2023-06-14T00:22:02;19;19;
69123;PMS5003;56232;53.384;-2.732;2023-06-14T00:24:27;21;20;
69123;PMS5003;56232;53.384;-2.732;2023-06-14T00:26:53;18;18;
69123;PMS5003;56232;53.384;-2.732;2023-06-14T00:29:18;16;15;
69123;PMS5003;56232;53.384;-2.732;2023-06-14T00:31:44;16;16;
69123;PMS5003;56232;53.384;-2.732;2023-06-14T00:34:10;18;17;
69123;PMS5003;56232;53.384;-2.732;2023-06-14T00:36:35;17;16;
69123;PMS5003;56232;53.384;-2.732;2023-06-14T00:39:01;16;15;
69123;PMS5003;56232;53.384;-2.732;2023-06-14T00:41:27;14;14;
69123;PMS5003;56232;53.384;-2.732;2023-06-14T00:43:52;14;14;
69123;PMS5003;56232;53.384;-2.732;2023-06-14T00:46:18;14;14;
69123;PMS5003;56232;53.384;-2.732;2023-06-14T00:48:44;13;13;
69123;PMS5003;56232;53.384;-2.732;2023-06-14T00:51:10;13;13;
69123;PMS5003;56232;53.384;-2.732;2023-06-14T00:53:35;14;14;
69123;PMS5003;56232;53.384;-2.732;2023-06-14T00:56:01;14;14;
69123;PMS5003;56232;53.384;-2.732;2023-06-14T00:58:32;15;14;
69123;PMS5003;56232;53.384;-2.732;2023-06-14T01:00:53;15;15;
69123;PMS5003;56232;53.384;-2.732;2023-06-14T01:03:18;14;14;
69123;PMS5003;56232;53.384;-2.732;2023-06-14T01:05:43;14;14;
69123;PMS5003;56232;53.384;-2.732;2023-06-14T01:08:25;19;19;
69123;PMS5003;56232;53.384;-2.732;2023-06-14T01:10:36;22;21;
69123;PMS5003;56232;53.384;-2.732;2023-06-14T01:13:02;19;18;
69123;PMS5003;56232;53.384;-2.732;2023-06-14T01:15:26;19;19;
69123;PMS5003;56232;53.384;-2.732;2023-06-14T01:17:51;21;20;
69123;PMS5003;56232;53.384;-2.732;2023-06-14T01:20:17;21;21;
69123;PMS5003;56232;53.384;-2.732;2023-06-14T01:22:47;19;19;
69123;PMS5003;56232;53.384;-2.732;2023-06-14T01:25:09;19;19;
69123;PMS5003;56232;53.384;-2.732;2023-06-14T01:27:34;19;18;
69123;PMS5003;56232;53.384;-2.732;2023-06-14T01:29:59;21;19;
69123;PMS5003;56232;53.384;-2.732;2023-06-14T01:32:25;20;18;
69123;PMS5003;56232;53.384;-2.732;2023-06-14T01:34:51;20;20;
69123;PMS5003;56232;53.384;-2.732;2023-06-14T01:37:16;18;18;
69123;PMS5003;56232;53.384;-2.732;2023-06-14T01:39:42;18;18;
69123;PMS5003;56232;53.384;-2.732;2023-06-14T01:42:08;20;20;
69123;PMS5003;56232;53.384;-2.732;2023-06-14T01:44:33;18;18;
69123;PMS5003;56232;53.384;-2.732;2023-06-14T01:46:59;18;18;
69123;PMS5003;56232;53.384;-2.732;2023-06-14T01:49:25;19;18;
69123;PMS5003;56232;53.384;-2.732;2023-06-14T01:51:50;19;17;
69123;PMS5003;56232;53.384;-2.732;2023-06-14T01:54:16;19;19;
69123;PMS5003;56232;53.384;-2.732;2023-06-14T01:56:42;20;19;
69123;PMS5003;56232;53.384;-2.732;2023-06-14T01:59:08;20;20;
69123;PMS5003;56232;53.384;-2.732;2023-06-14T02:01:33;22;22;
69123;PMS5003;56232;53.384;-2.732;2023-06-14T02:03:59;15;15;
69123;PMS5003;56232;53.384;-2.732;2023-06-14T02:06:26;17;17;
69123;PMS5003;56232;53.384;-2.732;2023-06-14T02:08:50;20;20;
69123;PMS5003;56232;53.384;-2.732;2023-06-14T02:11:16;20;19;
69123;PMS5003;56232;53.384;-2.732;2023-06-14T02:13:41;17;17;
69123;PMS5003;56232;53.384;-2.732;2023-06-14T02:16:07;18;18;
69123;PMS5003;56232;53.384;-2.732;2023-06-14T02:18:32;19;19;
69123;PMS5003;56232;53.384;-2.732;2023-06-14T02:20:58;20;20;
69123;PMS5003;56232;53.384;-2.732;2023-06-14T02:23:24;22;22;
69123;PMS5003;56232;53.384;-2.732;2023-06-14T02:25:49;21;21;
69123;PMS5003;56232;53.384;-2.732;2023-06-14T02:28:15;22;21;
69123;PMS5003;56232;53.384;-2.732;2023-06-14T02:30:41;19;18;
69123;PMS5003;56232;53.384;-2.732;2023-06-14T02:33:06;19;18;
69123;PMS5003;56232;53.384;-2.732;2023-06-14T02:35:31;22;21;
69123;PMS5003;56232;53.384;-2.732;2023-06-14T02:37:56;15;15;
69123;PMS5003;56232;53.384;-2.732;2023-06-14T02:40:22;17;17;
69123;PMS5003;56232;53.384;-2.732;2023-06-14T02:42:47;20;19;
69123;PMS5003;56232;53.384;-2.732;2023-06-14T02:45:13;15;15;
69123;PMS5003;56232;53.384;-2.732;2023-06-14T02:47:38;16;15;
69123;PMS5003;56232;53.384;-2.732;2023-06-14T02:50:04;17;17;
69123;PMS5003;56232;53.384;-2.732;2023-06-14T02:52:29;16;16;
69123;PMS5003;56232;53.384;-2.732;2023-06-14T02:54:55;17;17;
69123;PMS5003;56232;53.384;-2.732;2023-06-14T02:57:21;18;18;
69123;PMS5003;56232;53.384;-2.732;2023-06-14T02:59:46;20;20;
69123;PMS5003;56232;53.384;-2.732;2023-06-14T03:02:11;20;20;
69123;PMS5003;56232;53.384;-2.732;2023-06-14T03:04:36;20;20;
69123;PMS5003;56232;53.384;-2.732;2023-06-14T03:07:02;17;17;
69123;PMS5003;56232;53.384;-2.732;2023-06-14T03:09:28;16;16;
69123;PMS5003;56232;53.384;-2.732;2023-06-14T03:11:54;18;16;
69123;PMS5003;56232;53.384;-2.732;2023-06-14T03:14:19;17;16;
69123;PMS5003;56232;53.384;-2.732;2023-06-14T03:16:45;14;14;
69123;PMS5003;56232;53.384;-2.732;2023-06-14T03:19:11;15;15;
69123;PMS5003;56232;53.384;-2.732;2023-06-14T03:21:36;16;16;
69123;PMS5003;56232;53.384;-2.732;2023-06-14T03:24:01;14;13;
69123;PMS5003;56232;53.384;-2.732;2023-06-14T03:26:27;14;14;
69123;PMS5003;56232;53.384;-2.732;2023-06-14T03:28:53;13;12;
69123;PMS5003;56232;53.384;-2.732;2023-06-14T03:31:18;14;13;
69123;PMS5003;56232;53.384;-2.732;2023-06-14T03:33:44;14;14;
69123;PMS5003;56232;53.384;-2.732;2023-06-14T03:36:10;15;14;
69123;PMS5003;56232;53.384;-2.732;2023-06-14T03:38:36;14;13;
69123;PMS5003;56232;53.384;-2.732;2023-06-14T03:41:01;15;15;
69123;PMS5003;56232;53.384;-2.732;2023-06-14T03:43:27;14;12;
69123;PMS5003;56232;53.384;-2.732;2023-06-14T03:45:52;15;15;
69123;PMS5003;56232;53.384;-2.732;2023-06-14T03:48:18;13;13;
69123;PMS5003;56232;53.384;-2.732;2023-06-14T03:50:44;17;17;
69123;PMS5003;56232;53.384;-2.732;2023-06-14T03:53:09;18;17;
69123;PMS5003;56232;53.384;-2.732;2023-06-14T03:55:35;18;18;
69123;PMS5003;56232;53.384;-2.732;2023-06-14T03:58:00;15;15;
69123;PMS5003;56232;53.384;-2.732;2023-06-14T04:00:26;15;14;
69123;PMS5003;56232;53.384;-2.732;2023-06-14T04:02:52;13;13;
69123;PMS5003;56232;53.384;-2.732;2023-06-14T04:05:17;16;16;
69123;PMS5003;56232;53.384;-2.732;2023-06-14T04:07:43;16;15;
69123;PMS5003;56232;53.384;-2.732;2023-06-14T04:10:09;16;15;
69123;PMS5003;56232;53.384;-2.732;2023-06-14T04:12:34;12;12;
69123;PMS5003;56232;53.384;-2.732;2023-06-14T04:15:00;14;13;
69123;PMS5003;56232;53.384;-2.732;2023-06-14T04:17:25;15;14;
69123;PMS5003;56232;53.384;-2.732;2023-06-14T04:19:51;14;14;
69123;PMS5003;56232;53.384;-2.732;2023-06-14T04:22:16;13;13;
69123;PMS5003;56232;53.384;-2.732;2023-06-14T04:24:42;17;15;
69123;PMS5003;56232;53.384;-2.732;2023-06-14T04:27:08;18;17;
69123;PMS5003;56232;53.384;-2.732;2023-06-14T04:29:32;17;17;
69123;PMS5003;56232;53.384;-2.732;2023-06-14T04:31:58;16;16;
69123;PMS5003;56232;53.384;-2.732;2023-06-14T04:34:23;18;18;
69123;PMS5003;56232;53.384;-2.732;2023-06-14T04:36:49;19;18;
69123;PMS5003;56232;53.384;-2.732;2023-06-14T04:39:14;18;18;
69123;PMS5003;56232;53.384;-2.732;2023-06-14T04:41:40;16;16;
69123;PMS5003;56232;53.384;-2.732;2023-06-14T04:44:05;16;16;
69123;PMS5003;56232;53.384;-2.732;2023-06-14T04:46:31;14;13;
69123;PMS5003;56232;53.384;-2.732;2023-06-14T04:48:57;16;16;
69123;PMS5003;56232;53.384;-2.732;2023-06-14T04:51:22;16;16;
69123;PMS5003;56232;53.384;-2.732;2023-06-14T04:53:48;15;15;
69123;PMS5003;56232;53.384;-2.732;2023-06-14T04:56:14;19;18;
69123;PMS5003;56232;53.384;-2.732;2023-06-14T04:58:39;18;17;
69123;PMS5003;56232;53.384;-2.732;2023-06-14T05:01:05;16;14;
69123;PMS5003;56232;53.384;-2.732;2023-06-14T05:03:30;16;16;
69123;PMS5003;56232;53.384;-2.732;2023-06-14T05:05:56;13;13;
69123;PMS5003;56232;53.384;-2.732;2023-06-14T05:08:22;12;12;
69123;PMS5003;56232;53.384;-2.732;2023-06-14T05:10:48;11;11;
69123;PMS5003;56232;53.384;-2.732;2023-06-14T05:13:13;14;13;
69123;PMS5003;56232;53.384;-2.732;2023-06-14T05:15:39;15;14;
69123;PMS5003;56232;53.384;-2.732;2023-06-14T05:18:05;16;14;
69123;PMS5003;56232;53.384;-2.732;2023-06-14T05:20:30;15;15;
69123;PMS5003;56232;53.384;-2.732;2023-06-14T05:22:55;17;17;
69123;PMS5003;56232;53.384;-2.732;2023-06-14T05:25:21;19;17;
69123;PMS5003;56232;53.384;-2.732;2023-06-14T05:27:47;17;15;
69123;PMS5003;56232;53.384;-2.732;2023-06-14T05:30:13;15;15;
69123;PMS5003;56232;53.384;-2.732;2023-06-14T05:32:38;12;12;
69123;PMS5003;56232;53.384;-2.732;2023-06-14T05:35:04;15;14;
69123;PMS5003;56232;53.384;-2.732;2023-06-14T05:37:30;13;12;
69123;PMS5003;56232;53.384;-2.732;2023-06-14T05:39:55;15;14;
69123;PMS5003;56232;53.384;-2.732;2023-06-14T05:42:21;14;14;
69123;PMS5003;56232;53.384;-2.732;2023-06-14T05:44:47;14;13;
69123;PMS5003;56232;53.384;-2.732;2023-06-14T05:47:13;15;14;
69123;PMS5003;56232;53.384;-2.732;2023-06-14T05:49:38;13;13;
69123;PMS5003;56232;53.384;-2.732;2023-06-14T05:52:04;15;14;
69123;PMS5003;56232;53.384;-2.732;2023-06-14T05:54:28;11;11;
69123;PMS5003;56232;53.384;-2.732;2023-06-14T05:56:54;12;12;
69123;PMS5003;56232;53.384;-2.732;2023-06-14T05:59:19;13;13;
69123;PMS5003;56232;53.384;-2.732;2023-06-14T06:01:45;11;11;
69123;PMS5003;56232;53.384;-2.732;2023-06-14T06:04:11;12;12;
69123;PMS5003;56232;53.384;-2.732;2023-06-14T06:06:37;11;11;
69123;PMS5003;56232;53.384;-2.732;2023-06-14T06:09:02;11;11;
69123;PMS5003;56232;53.384;-2.732;2023-06-14T06:11:28;12;12;
69123;PMS5003;56232;53.384;-2.732;2023-06-14T06:13:53;10;10;
69123;PMS5003;56232;53.384;-2.732;2023-06-14T06:16:19;10;10;
69123;PMS5003;56232;53.384;-2.732;2023-06-14T06:18:44;12;11;
69123;PMS5003;56232;53.384;-2.732;2023-06-14T06:21:11;11;11;
69123;PMS5003;56232;53.384;-2.732;2023-06-14T06:23:36;11;10;
69123;PMS5003;56232;53.384;-2.732;2023-06-14T06:26:01;10;10;
69123;PMS5003;56232;53.384;-2.732;2023-06-14T06:28:27;11;10;
69123;PMS5003;56232;53.384;-2.732;2023-06-14T06:30:53;10;10;
69123;PMS5003;56232;53.384;-2.732;2023-06-14T06:33:18;12;11;
69123;PMS5003;56232;53.384;-2.732;2023-06-14T06:35:44;8;8;
69123;PMS5003;56232;53.384;-2.732;2023-06-14T06:38:10;10;9;
69123;PMS5003;56232;53.384;-2.732;2023-06-14T06:40:35;9;9;
69123;PMS5003;56232;53.384;-2.732;2023-06-14T06:43:01;8;8;
69123;PMS5003;56232;53.384;-2.732;2023-06-14T06:45:26;10;10;
69123;PMS5003;56232;53.384;-2.732;2023-06-14T06:47:52;8;8;
69123;PMS5003;56232;53.384;-2.732;2023-06-14T06:50:17;8;6;
69123;PMS5003;56232;53.384;-2.732;2023-06-14T06:52:43;8;7;
69123;PMS5003;56232;53.384;-2.732;2023-06-14T06:55:09;8;7;
69123;PMS5003;56232;53.384;-2.732;2023-06-14T06:57:34;7;7;
69123;PMS5003;56232;53.384;-2.732;2023-06-14T07:00:00;8;8;
69123;PMS5003;56232;53.384;-2.732;2023-06-14T07:02:25;7;6;
69123;PMS5003;56232;53.384;-2.732;2023-06-14T07:04:50;6;6;
69123;PMS5003;56232;53.384;-2.732;2023-06-14T07:07:16;8;8;
69123;PMS5003;56232;53.384;-2.732;2023-06-14T07:09:41;9;8;
69123;PMS5003;56232;53.384;-2.732;2023-06-14T07:12:07;8;7;
69123;PMS5003;56232;53.384;-2.732;2023-06-14T07:14:32;8;7;
69123;PMS5003;56232;53.384;-2.732;2023-06-14T07:16:58;6;6;
69123;PMS5003;56232;53.384;-2.732;2023-06-14T07:19:23;7;7;
69123;PMS5003;56232;53.384;-2.732;2023-06-14T07:21:49;7;7;
69123;PMS5003;56232;53.384;-2.732;2023-06-14T07:24:15;8;7;
69123;PMS5003;56232;53.384;-2.732;2023-06-14T07:26:40;6;6;
69123;PMS5003;56232;53.384;-2.732;2023-06-14T07:29:06;8;6;
69123;PMS5003;56232;53.384;-2.732;2023-06-14T07:31:31;7;6;
69123;PMS5003;56232;53.384;-2.732;2023-06-14T07:33:57;7;6;
69123;PMS5003;56232;53.384;-2.732;2023-06-14T07:36:22;6;6;
69123;PMS5003;56232;53.384;-2.732;2023-06-14T07:38:48;4;4;
69123;PMS5003;56232;53.384;-2.732;2023-06-14T07:41:13;6;6;
69123;PMS5003;56232;53.384;-2.732;2023-06-14T07:43:38;7;6;
69123;PMS5003;56232;53.384;-2.732;2023-06-14T07:46:04;7;6;
69123;PMS5003;56232;53.384;-2.732;2023-06-14T07:48:43;6;6;
69123;PMS5003;56232;53.384;-2.732;2023-06-14T07:50:55;6;6;
69123;PMS5003;56232;53.384;-2.732;2023-06-14T07:53:20;6;6;
69123;PMS5003;56232;53.384;-2.732;2023-06-14T07:55:46;7;6;
69123;PMS5003;56232;53.384;-2.732;2023-06-14T07:58:11;5;5;
69123;PMS5003;56232;53.384;-2.732;2023-06-14T08:00:37;6;5;
69123;PMS5003;56232;53.384;-2.732;2023-06-14T08:03:03;5;5;
69123;PMS5003;56232;53.384;-2.732;2023-06-14T08:05:28;7;7;
69123;PMS5003;56232;53.384;-2.732;2023-06-14T08:07:54;6;6;
69123;PMS5003;56232;53.384;-2.732;2023-06-14T08:10:19;6;6;
69123;PMS5003;56232;53.384;-2.732;2023-06-14T08:12:45;5;5;
69123;PMS5003;56232;53.384;-2.732;2023-06-14T08:15:10;6;6;
69123;PMS5003;56232;53.384;-2.732;2023-06-14T08:17:36;7;7;
69123;PMS5003;56232;53.384;-2.732;2023-06-14T08:20:01;8;7;
69123;PMS5003;56232;53.384;-2.732;2023-06-14T08:22:27;6;6;
69123;PMS5003;56232;53.384;-2.732;2023-06-14T08:24:52;6;6;
69123;PMS5003;56232;53.384;-2.732;2023-06-14T08:27:18;7;7;
69123;PMS5003;56232;53.384;-2.732;2023-06-14T08:29:43;4;4;
69123;PMS5003;56232;53.384;-2.732;2023-06-14T08:32:09;7;6;
69123;PMS5003;56232;53.384;-2.732;2023-06-14T08:34:34;7;7;
69123;PMS5003;56232;53.384;-2.732;2023-06-14T08:37:00;7;6;
69123;PMS5003;56232;53.384;-2.732;2023-06-14T08:39:25;7;7;
69123;PMS5003;56232;53.384;-2.732;2023-06-14T08:41:51;7;7;
69123;PMS5003;56232;53.384;-2.732;2023-06-14T08:44:16;5;5;
69123;PMS5003;56232;53.384;-2.732;2023-06-14T08:46:42;6;6;
69123;PMS5003;56232;53.384;-2.732;2023-06-14T08:49:08;5;5;
69123;PMS5003;56232;53.384;-2.732;2023-06-14T08:51:33;6;6;
69123;PMS5003;56232;53.384;-2.732;2023-06-14T08:53:59;10;9;
69123;PMS5003;56232;53.384;-2.732;2023-06-14T08:56:25;5;5;
69123;PMS5003;56232;53.384;-2.732;2023-06-14T08:58:50;6;6;
69123;PMS5003;56232;53.384;-2.732;2023-06-14T09:01:15;5;5;
69123;PMS5003;56232;53.384;-2.732;2023-06-14T09:03:41;5;5;
69123;PMS5003;56232;53.384;-2.732;2023-06-14T09:06:07;7;7;
69123;PMS5003;56232;53.384;-2.732;2023-06-14T09:08:32;6;6;
69123;PMS5003;56232;53.384;-2.732;2023-06-14T09:10:57;9;7;
69123;PMS5003;56232;53.384;-2.732;2023-06-14T09:13:23;6;6;
69123;PMS5003;56232;53.384;-2.732;2023-06-14T09:15:48;7;6;
69123;PMS5003;56232;53.384;-2.732;2023-06-14T09:18:14;6;6;
69123;PMS5003;56232;53.384;-2.732;2023-06-14T09:20:40;8;7;
69123;PMS5003;56232;53.384;-2.732;2023-06-14T09:23:05;5;5;
69123;PMS5003;56232;53.384;-2.732;2023-06-14T09:25:30;7;7;
69123;PMS5003;56232;53.384;-2.732;2023-06-14T09:27:56;7;6;
69123;PMS5003;56232;53.384;-2.732;2023-06-14T09:30:21;7;7;
69123;PMS5003;56232;53.384;-2.732;2023-06-14T09:32:47;7;6;
69123;PMS5003;56232;53.384;-2.732;2023-06-14T09:35:14;7;6;
69123;PMS5003;56232;53.384;-2.732;2023-06-14T09:37:38;6;6;
69123;PMS5003;56232;53.384;-2.732;2023-06-14T09:40:04;7;7;
69123;PMS5003;56232;53.384;-2.732;2023-06-14T09:42:29;6;6;
69123;PMS5003;56232;53.384;-2.732;2023-06-14T09:44:55;5;5;
69123;PMS5003;56232;53.384;-2.732;2023-06-14T09:47:20;5;5;
69123;PMS5003;56232;53.384;-2.732;2023-06-14T09:49:46;8;8;
69123;PMS5003;56232;53.384;-2.732;2023-06-14T09:52:12;7;6;
69123;PMS5003;56232;53.384;-2.732;2023-06-14T09:54:39;7;7;
69123;PMS5003;56232;53.384;-2.732;2023-06-14T09:57:02;9;6;
69123;PMS5003;56232;53.384;-2.732;2023-06-14T09:59:28;6;6;
69123;PMS5003;56232;53.384;-2.732;2023-06-14T10:01:53;7;7;
69123;PMS5003;56232;53.384;-2.732;2023-06-14T10:04:19;6;6;
69123;PMS5003;56232;53.384;-2.732;2023-06-14T10:06:45;10;8;
69123;PMS5003;56232;53.384;-2.732;2023-06-14T10:09:10;6;6;
69123;PMS5003;56232;53.384;-2.732;2023-06-14T10:11:35;7;6;
69123;PMS5003;56232;53.384;-2.732;2023-06-14T10:14:01;7;6;
69123;PMS5003;56232;53.384;-2.732;2023-06-14T10:16:31;6;5;
69123;PMS5003;56232;53.384;-2.732;2023-06-14T10:18:53;8;8;
69123;PMS5003;56232;53.384;-2.732;2023-06-14T10:21:20;7;6;
69123;PMS5003;56232;53.384;-2.732;2023-06-14T10:23:44;7;7;
69123;PMS5003;56232;53.384;-2.732;2023-06-14T10:26:09;6;6;
69123;PMS5003;56232;53.384;-2.732;2023-06-14T10:28:35;8;8;
69123;PMS5003;56232;53.384;-2.732;2023-06-14T10:31:03;7;6;
69123;PMS5003;56232;53.384;-2.732;2023-06-14T10:33:24;12;11;
69123;PMS5003;56232;53.384;-2.732;2023-06-14T10:35:51;7;7;
69123;PMS5003;56232;53.384;-2.732;2023-06-14T10:38:15;5;5;
69123;PMS5003;56232;53.384;-2.732;2023-06-14T10:40:41;7;7;
69123;PMS5003;56232;53.384;-2.732;2023-06-14T10:45:37;7;7;
69123;PMS5003;56232;53.384;-2.732;2023-06-14T10:47:57;8;8;
69123;PMS5003;56232;53.384;-2.732;2023-06-14T10:50:27;9;8;
69123;PMS5003;56232;53.384;-2.732;2023-06-14T10:52:48;8;8;
69123;PMS5003;56232;53.384;-2.732;2023-06-14T10:55:14;8;8;
69123;PMS5003;56232;53.384;-2.732;2023-06-14T10:57:40;8;8;
69123;PMS5003;56232;53.384;-2.732;2023-06-14T11:00:05;6;6;
69123;PMS5003;56232;53.384;-2.732;2023-06-14T11:04:56;7;6;
69123;PMS5003;56232;53.384;-2.732;2023-06-14T11:07:26;7;7;
69123;PMS5003;56232;53.384;-2.732;2023-06-14T11:12:13;10;9;
69123;PMS5003;56232;53.384;-2.732;2023-06-14T11:14:38;9;9;
69123;PMS5003;56232;53.384;-2.732;2023-06-14T11:17:04;7;7;
69123;PMS5003;56232;53.384;-2.732;2023-06-14T11:19:29;8;8;
69123;PMS5003;56232;53.384;-2.732;2023-06-14T11:21:55;8;8;
69123;PMS5003;56232;53.384;-2.732;2023-06-14T11:24:20;11;10;
69123;PMS5003;56232;53.384;-2.732;2023-06-14T11:26:47;9;9;
69123;PMS5003;56232;53.384;-2.732;2023-06-14T11:29:11;12;11;
69123;PMS5003;56232;53.384;-2.732;2023-06-14T11:31:37;9;8;
69123;PMS5003;56232;53.384;-2.732;2023-06-14T11:34:02;9;9;
69123;PMS5003;56232;53.384;-2.732;2023-06-14T11:36:28;11;11;
69123;PMS5003;56232;53.384;-2.732;2023-06-14T11:38:57;10;9;
69123;PMS5003;56232;53.384;-2.732;2023-06-14T11:41:19;10;8;
69123;PMS5003;56232;53.384;-2.732;2023-06-14T11:43:45;11;10;
69123;PMS5003;56232;53.384;-2.732;2023-06-14T11:46:14;9;9;
69123;PMS5003;56232;53.384;-2.732;2023-06-14T11:48:36;11;10;
69123;PMS5003;56232;53.384;-2.732;2023-06-14T11:51:01;12;12;
69123;PMS5003;56232;53.384;-2.732;2023-06-14T11:53:27;9;9;
69123;PMS5003;56232;53.384;-2.732;2023-06-14T11:55:53;11;11;
69123;PMS5003;56232;53.384;-2.732;2023-06-14T11:58:18;11;11;
69123;PMS5003;56232;53.384;-2.732;2023-06-14T12:00:44;9;9;
69123;PMS5003;56232;53.384;-2.732;2023-06-14T12:03:10;11;11;
69123;PMS5003;56232;53.384;-2.732;2023-06-14T12:05:35;11;11;
69123;PMS5003;56232;53.384;-2.732;2023-06-14T12:08:02;10;10;
69123;PMS5003;56232;53.384;-2.732;2023-06-14T12:10:26;10;10;
69123;PMS5003;56232;53.384;-2.732;2023-06-14T12:12:56;10;10;
69123;PMS5003;56232;53.384;-2.732;2023-06-14T12:15:17;11;11;
69123;PMS5003;56232;53.384;-2.732;2023-06-14T12:17:42;12;12;
69123;PMS5003;56232;53.384;-2.732;2023-06-14T12:20:08;12;12;
69123;PMS5003;56232;53.384;-2.732;2023-06-14T12:22:33;10;10;
69123;PMS5003;56232;53.384;-2.732;2023-06-14T12:24:59;11;11;
69123;PMS5003;56232;53.384;-2.732;2023-06-14T12:27:25;11;11;
69123;PMS5003;56232;53.384;-2.732;2023-06-14T12:32:15;11;10;
69123;PMS5003;56232;53.384;-2.732;2023-06-14T12:34:41;13;11;
69123;PMS5003;56232;53.384;-2.732;2023-06-14T12:37:06;11;10;
69123;PMS5003;56232;53.384;-2.732;2023-06-14T12:39:32;10;9;
69123;PMS5003;56232;53.384;-2.732;2023-06-14T12:41:57;10;10;
69123;PMS5003;56232;53.384;-2.732;2023-06-14T12:44:22;12;12;
69123;PMS5003;56232;53.384;-2.732;2023-06-14T12:46:48;9;9;
69123;PMS5003;56232;53.384;-2.732;2023-06-14T12:49:13;10;10;
69123;PMS5003;56232;53.384;-2.732;2023-06-14T12:51:39;10;10;
69123;PMS5003;56232;53.384;-2.732;2023-06-14T12:54:04;11;11;
69123;PMS5003;56232;53.384;-2.732;2023-06-14T12:56:30;10;10;
69123;PMS5003;56232;53.384;-2.732;2023-06-14T12:58:55;10;10;
69123;PMS5003;56232;53.384;-2.732;2023-06-14T13:01:21;12;10;
69123;PMS5003;56232;53.384;-2.732;2023-06-14T13:03:46;12;11;
69123;PMS5003;56232;53.384;-2.732;2023-06-14T13:06:12;11;11;
69123;PMS5003;56232;53.384;-2.732;2023-06-14T13:08:38;10;10;
69123;PMS5003;56232;53.384;-2.732;2023-06-14T13:11:03;10;9;
69123;PMS5003;56232;53.384;-2.732;2023-06-14T13:13:29;10;10;
69123;PMS5003;56232;53.384;-2.732;2023-06-14T13:15:54;11;10;
69123;PMS5003;56232;53.384;-2.732;2023-06-14T13:18:19;10;9;
69123;PMS5003;56232;53.384;-2.732;2023-06-14T13:20:45;10;9;
69123;PMS5003;56232;53.384;-2.732;2023-06-14T13:23:11;12;12;
69123;PMS5003;56232;53.384;-2.732;2023-06-14T13:25:36;11;11;
69123;PMS5003;56232;53.384;-2.732;2023-06-14T13:28:01;9;9;
69123;PMS5003;56232;53.384;-2.732;2023-06-14T13:30:27;8;8;
69123;PMS5003;56232;53.384;-2.732;2023-06-14T13:32:52;10;9;
69123;PMS5003;56232;53.384;-2.732;2023-06-14T13:35:18;9;9;
69123;PMS5003;56232;53.384;-2.732;2023-06-14T13:37:43;10;10;
69123;PMS5003;56232;53.384;-2.732;2023-06-14T13:40:11;10;10;
69123;PMS5003;56232;53.384;-2.732;2023-06-14T13:42:34;9;8;
69123;PMS5003;56232;53.384;-2.732;2023-06-14T13:45:00;8;8;
69123;PMS5003;56232;53.384;-2.732;2023-06-14T13:47:25;9;9;
69123;PMS5003;56232;53.384;-2.732;2023-06-14T13:49:50;10;10;
69123;PMS5003;56232;53.384;-2.732;2023-06-14T13:52:16;10;10;
69123;PMS5003;56232;53.384;-2.732;2023-06-14T13:54:41;9;9;
69123;PMS5003;56232;53.384;-2.732;2023-06-14T13:57:07;9;9;
69123;PMS5003;56232;53.384;-2.732;2023-06-14T13:59:32;7;7;
69123;PMS5003;56232;53.384;-2.732;2023-06-14T14:01:58;10;9;
69123;PMS5003;56232;53.384;-2.732;2023-06-14T14:04:23;8;8;
69123;PMS5003;56232;53.384;-2.732;2023-06-14T14:06:49;9;9;
69123;PMS5003;56232;53.384;-2.732;2023-06-14T14:09:14;8;8;
69123;PMS5003;56232;53.384;-2.732;2023-06-14T14:11:40;8;8;
69123;PMS5003;56232;53.384;-2.732;2023-06-14T14:14:05;9;9;
69123;PMS5003;56232;53.384;-2.732;2023-06-14T14:16:31;6;6;
69123;PMS5003;56232;53.384;-2.732;2023-06-14T14:18:56;9;8;
69123;PMS5003;56232;53.384;-2.732;2023-06-14T14:21:22;7;7;
69123;PMS5003;56232;53.384;-2.732;2023-06-14T14:23:48;8;8;
69123;PMS5003;56232;53.384;-2.732;2023-06-14T14:26:13;8;8;
69123;PMS5003;56232;53.384;-2.732;2023-06-14T14:28:39;9;9;
69123;PMS5003;56232;53.384;-2.732;2023-06-14T14:31:04;8;8;
69123;PMS5003;56232;53.384;-2.732;2023-06-14T14:33:30;8;8;
69123;PMS5003;56232;53.384;-2.732;2023-06-14T14:35:55;8;7;
69123;PMS5003;56232;53.384;-2.732;2023-06-14T14:38:21;8;8;
69123;PMS5003;56232;53.384;-2.732;2023-06-14T14:40:46;6;6;
69123;PMS5003;56232;53.384;-2.732;2023-06-14T14:43:12;9;8;
69123;PMS5003;56232;53.384;-2.732;2023-06-14T14:45:37;9;8;
69123;PMS5003;56232;53.384;-2.732;2023-06-14T14:48:03;9;9;
69123;PMS5003;56232;53.384;-2.732;2023-06-14T14:50:28;8;8;
69123;PMS5003;56232;53.384;-2.732;2023-06-14T14:52:54;7;7;
69123;PMS5003;56232;53.384;-2.732;2023-06-14T14:55:20;11;10;
69123;PMS5003;56232;53.384;-2.732;2023-06-14T14:57:45;7;7;
69123;PMS5003;56232;53.384;-2.732;2023-06-14T15:00:11;11;10;
69123;PMS5003;56232;53.384;-2.732;2023-06-14T15:02:36;7;7;
69123;PMS5003;56232;53.384;-2.732;2023-06-14T15:05:02;9;9;
69123;PMS5003;56232;53.384;-2.732;2023-06-14T15:07:27;5;5;
69123;PMS5003;56232;53.384;-2.732;2023-06-14T15:09:53;7;7;
69123;PMS5003;56232;53.384;-2.732;2023-06-14T15:12:18;8;8;
69123;PMS5003;56232;53.384;-2.732;2023-06-14T15:14:44;8;8;
69123;PMS5003;56232;53.384;-2.732;2023-06-14T15:17:10;7;7;
69123;PMS5003;56232;53.384;-2.732;2023-06-14T15:19:35;10;9;
69123;PMS5003;56232;53.384;-2.732;2023-06-14T15:22:00;7;7;
69123;PMS5003;56232;53.384;-2.732;2023-06-14T15:24:26;7;7;
69123;PMS5003;56232;53.384;-2.732;2023-06-14T15:26:51;8;8;
69123;PMS5003;56232;53.384;-2.732;2023-06-14T15:29:17;8;8;
69123;PMS5003;56232;53.384;-2.732;2023-06-14T15:31:42;8;8;
69123;PMS5003;56232;53.384;-2.732;2023-06-14T15:34:08;7;7;
69123;PMS5003;56232;53.384;-2.732;2023-06-14T15:36:34;8;8;
69123;PMS5003;56232;53.384;-2.732;2023-06-14T15:38:59;9;9;
69123;PMS5003;56232;53.384;-2.732;2023-06-14T15:41:24;8;8;
69123;PMS5003;56232;53.384;-2.732;2023-06-14T15:43:50;9;9;
69123;PMS5003;56232;53.384;-2.732;2023-06-14T15:46:16;9;8;
69123;PMS5003;56232;53.384;-2.732;2023-06-14T15:48:41;8;8;
69123;PMS5003;56232;53.384;-2.732;2023-06-14T15:51:06;9;9;
69123;PMS5003;56232;53.384;-2.732;2023-06-14T15:53:32;8;7;
69123;PMS5003;56232;53.384;-2.732;2023-06-14T15:55:57;9;9;
69123;PMS5003;56232;53.384;-2.732;2023-06-14T15:58:23;7;7;
69123;PMS5003;56232;53.384;-2.732;2023-06-14T16:00:48;9;8;
69123;PMS5003;56232;53.384;-2.732;2023-06-14T16:03:14;8;8;
69123;PMS5003;56232;53.384;-2.732;2023-06-14T16:05:40;8;8;
69123;PMS5003;56232;53.384;-2.732;2023-06-14T16:08:05;9;9;
69123;PMS5003;56232;53.384;-2.732;2023-06-14T16:10:31;8;8;
69123;PMS5003;56232;53.384;-2.732;2023-06-14T16:12:56;9;8;
69123;PMS5003;56232;53.384;-2.732;2023-06-14T16:15:22;7;7;